Time;durP1;ratioP1;P1;durP2;ratioP2;P2;SDS_P1;SDS_P2;PMS_P1;PMS_P2;Temp;Humidity;BMP_temperature;BMP_pressure;BME280_temperature;BME280_humidity;BME280_pressure;Samples;Min_cycle;Max_cycle;Signal;HPM_P1;HPM_P2
2024/01/13 00:00:26;;;;;;;49.30;27.53;;;3.00;99.90;;;;;;5016696;28;20283;-71
2024/01/13 00:02:51;;;;;;;53.40;27.70;;;3.00;99.90;;;;;;5036356;28;20237;-71
2024/01/13 00:05:18;;;;;;;53.13;28.63;;;3.00;99.90;;;;;;5035200;28;20200;-71
2024/01/13 00:07:43;;;;;;;48.00;28.00;;;3.00;99.90;;;;;;5035467;28;20329;-71
2024/01/13 00:10:09;;;;;;;57.70;28.70;;;3.00;99.90;;;;;;5035736;28;20464;-71
2024/01/13 00:12:35;;;;;;;65.20;30.60;;;3.00;99.90;;;;;;5035455;28;20186;-71
2024/01/13 00:15:00;;;;;;;49.23;27.90;;;3.00;99.90;;;;;;5034557;28;20186;-71
2024/01/13 00:17:26;;;;;;;50.60;28.57;;;2.90;99.90;;;;;;5035360;28;20567;-71
2024/01/13 00:19:52;;;;;;;50.73;29.10;;;2.90;99.90;;;;;;5035732;28;20175;-71
2024/01/13 00:22:17;;;;;;;60.67;31.20;;;2.90;99.90;;;;;;5034553;28;20174;-71
2024/01/13 00:24:43;;;;;;;54.97;30.20;;;2.90;99.90;;;;;;5017731;28;20186;-71
2024/01/13 00:27:09;;;;;;;49.87;28.17;;;2.90;99.90;;;;;;5035790;28;20184;-71
2024/01/13 00:29:34;;;;;;;48.07;27.93;;;2.90;99.90;;;;;;5035175;28;20194;-71
2024/01/13 00:32:00;;;;;;;52.27;28.43;;;3.00;99.90;;;;;;5035489;28;20250;-71
2024/01/13 00:34:26;;;;;;;54.87;31.10;;;3.00;99.90;;;;;;5033764;28;20193;-71
2024/01/13 00:36:51;;;;;;;52.93;28.33;;;3.00;99.90;;;;;;5035417;28;20201;-71
2024/01/13 00:39:17;;;;;;;51.63;30.87;;;3.00;99.90;;;;;;5034395;28;20186;-71
2024/01/13 00:41:43;;;;;;;44.20;26.93;;;3.00;99.90;;;;;;5035193;28;20220;-71
2024/01/13 00:44:08;;;;;;;54.00;29.73;;;3.00;99.90;;;;;;5034872;28;20644;-71
2024/01/13 00:46:34;;;;;;;49.27;28.27;;;3.00;99.90;;;;;;5034340;28;20185;-71
2024/01/13 00:48:59;;;;;;;46.00;29.07;;;3.00;99.90;;;;;;5034915;28;20265;-71
2024/01/13 00:51:25;;;;;;;48.27;28.53;;;3.00;99.90;;;;;;5016260;28;20182;-71
2024/01/13 00:53:51;;;;;;;48.37;27.50;;;3.00;99.90;;;;;;5034457;28;20190;-71
2024/01/13 00:56:16;;;;;;;46.77;26.53;;;3.00;99.90;;;;;;5033643;28;20185;-71
2024/01/13 00:58:42;;;;;;;49.00;26.87;;;3.00;99.90;;;;;;5034273;28;20193;-71
2024/01/13 01:01:08;;;;;;;43.30;26.37;;;3.00;99.90;;;;;;5034422;28;20205;-71
2024/01/13 01:03:33;;;;;;;46.63;26.53;;;3.00;99.90;;;;;;5031621;28;20186;-71
2024/01/13 01:05:59;;;;;;;47.17;26.40;;;3.00;99.90;;;;;;5034215;28;20176;-71
2024/01/13 01:08:26;;;;;;;52.07;29.60;;;3.00;99.90;;;;;;5034135;28;20235;-71
2024/01/13 01:10:51;;;;;;;58.70;30.20;;;3.10;99.90;;;;;;5034021;28;20193;-71
2024/01/13 01:13:17;;;;;;;46.17;27.67;;;3.10;99.90;;;;;;5033351;28;20425;-71
2024/01/13 01:15:43;;;;;;;46.30;29.57;;;3.00;99.90;;;;;;5033993;28;20205;-71
2024/01/13 01:18:08;;;;;;;46.47;27.50;;;3.00;99.90;;;;;;5032994;28;20195;-71
2024/01/13 01:20:35;;;;;;;50.37;28.07;;;3.00;99.90;;;;;;5033535;28;20221;-70
2024/01/13 01:23:00;;;;;;;50.70;28.60;;;3.00;99.90;;;;;;5033925;28;20186;-71
2024/01/13 01:25:26;;;;;;;51.33;29.53;;;2.90;99.90;;;;;;5032222;28;20543;-71
2024/01/13 01:27:51;;;;;;;52.53;28.30;;;2.90;99.90;;;;;;5034492;28;20239;-71
2024/01/13 01:30:17;;;;;;;50.27;29.63;;;2.90;99.90;;;;;;5033343;28;20629;-71
2024/01/13 01:32:43;;;;;;;49.30;28.10;;;2.90;99.90;;;;;;5032755;28;20189;-71
2024/01/13 01:35:08;;;;;;;50.43;28.13;;;2.90;99.90;;;;;;5033135;28;20725;-71
2024/01/13 01:37:34;;;;;;;46.80;28.90;;;2.90;99.90;;;;;;5033455;28;20230;-71
2024/01/13 01:40:00;;;;;;;48.37;28.43;;;2.90;99.90;;;;;;5033622;28;20198;-71
2024/01/13 01:42:26;;;;;;;49.33;28.97;;;3.00;99.90;;;;;;5032159;28;20712;-71
2024/01/13 01:44:51;;;;;;;51.40;28.20;;;3.00;99.90;;;;;;5033030;28;20436;-71
2024/01/13 01:47:19;;;;;;;51.40;28.93;;;3.00;99.90;;;;;;5031184;28;20185;-71
2024/01/13 01:49:46;;;;;;;50.43;29.27;;;3.00;99.90;;;;;;4999588;28;20186;-71
2024/01/13 01:52:14;;;;;;;46.30;28.43;;;3.00;99.90;;;;;;5030559;28;20436;-71
2024/01/13 01:54:40;;;;;;;53.13;29.50;;;3.00;99.90;;;;;;5015342;28;20440;-71
2024/01/13 01:57:08;;;;;;;48.00;28.10;;;3.00;99.90;;;;;;5031614;28;20555;-72
2024/01/13 01:59:34;;;;;;;48.40;27.60;;;2.90;99.90;;;;;;5031899;28;20964;-71
2024/01/13 02:02:00;;;;;;;45.53;26.73;;;2.90;99.90;;;;;;5033131;28;20502;-71
2024/01/13 02:04:26;;;;;;;45.23;27.20;;;3.00;99.90;;;;;;5032156;28;20420;-71
2024/01/13 02:06:52;;;;;;;47.73;27.83;;;3.00;99.90;;;;;;5014558;28;21066;-71
2024/01/13 02:09:19;;;;;;;47.13;27.20;;;3.00;99.90;;;;;;5032226;28;21059;-71
2024/01/13 02:11:45;;;;;;;40.77;25.00;;;3.00;99.90;;;;;;5032325;28;20448;-71
2024/01/13 02:14:11;;;;;;;44.00;24.90;;;3.00;99.90;;;;;;5014440;28;20446;-71
2024/01/13 02:16:37;;;;;;;44.93;25.83;;;2.90;99.90;;;;;;5032663;28;20445;-71
2024/01/13 02:19:02;;;;;;;41.57;25.77;;;3.00;99.90;;;;;;5032674;28;20182;-71
2024/01/13 02:21:28;;;;;;;38.17;25.20;;;2.90;99.90;;;;;;5014625;28;20341;-71
2024/01/13 02:23:54;;;;;;;37.53;25.53;;;2.90;99.90;;;;;;5031821;28;20194;-71
2024/01/13 02:26:19;;;;;;;39.37;24.23;;;3.00;99.90;;;;;;5031492;28;20640;-71
2024/01/13 02:28:45;;;;;;;41.17;25.10;;;3.00;99.90;;;;;;5033040;28;20264;-71
2024/01/13 02:31:12;;;;;;;40.50;25.40;;;3.00;99.90;;;;;;5032352;28;20187;-71
2024/01/13 02:33:37;;;;;;;39.87;24.57;;;3.00;99.90;;;;;;5032456;28;20660;-71
2024/01/13 02:36:03;;;;;;;41.07;24.33;;;3.00;99.90;;;;;;5032501;28;20430;-72
2024/01/13 02:38:29;;;;;;;40.53;23.00;;;3.00;99.90;;;;;;5014996;28;20672;-71
2024/01/13 02:40:55;;;;;;;39.00;23.27;;;2.90;99.90;;;;;;5032613;28;20469;-71
2024/01/13 02:43:20;;;;;;;32.33;21.00;;;3.00;99.90;;;;;;5032100;28;20617;-71
2024/01/13 02:45:46;;;;;;;36.87;22.97;;;2.90;99.90;;;;;;5032553;28;20221;-71
2024/01/13 02:48:17;;;;;;;34.17;22.17;;;2.90;99.90;;;;;;5030874;28;20656;-71
2024/01/13 02:50:54;;;;;;;37.03;21.97;;;2.90;99.90;;;;;;5031877;28;20189;-71
2024/01/13 02:53:20;;;;;;;36.27;21.67;;;3.00;99.90;;;;;;5031455;28;20437;-71
2024/01/13 02:55:46;;;;;;;34.80;20.70;;;3.00;99.90;;;;;;5031563;28;20491;-71
2024/01/13 02:58:12;;;;;;;30.97;20.50;;;3.00;99.90;;;;;;5012976;28;20460;-71
2024/01/13 03:00:38;;;;;;;33.63;21.80;;;3.00;99.90;;;;;;5032233;28;20218;-71
2024/01/13 03:03:04;;;;;;;33.57;21.77;;;3.00;99.90;;;;;;5031712;28;20429;-71
2024/01/13 03:05:29;;;;;;;37.10;22.40;;;3.00;99.90;;;;;;5031889;28;20194;-71
2024/01/13 03:07:55;;;;;;;36.97;20.67;;;3.00;99.90;;;;;;5032530;28;20201;-71
2024/01/13 03:10:21;;;;;;;36.47;20.47;;;3.00;99.90;;;;;;5031452;28;20174;-71
2024/01/13 03:12:46;;;;;;;33.27;20.90;;;3.00;99.90;;;;;;5032608;28;20328;-72
2024/01/13 03:15:12;;;;;;;39.53;21.23;;;3.00;99.90;;;;;;5030377;28;20186;-71
2024/01/13 03:17:38;;;;;;;39.27;22.13;;;3.00;99.90;;;;;;5032516;28;20755;-71
2024/01/13 03:20:04;;;;;;;30.73;19.47;;;3.00;99.90;;;;;;5031497;28;20182;-71
2024/01/13 03:22:29;;;;;;;29.47;20.30;;;3.00;99.90;;;;;;5032916;28;20276;-71
2024/01/13 03:24:56;;;;;;;36.60;21.27;;;3.00;99.90;;;;;;5035426;28;20474;-71
2024/01/13 03:27:21;;;;;;;33.43;21.50;;;3.00;99.90;;;;;;5034587;28;20542;-71
2024/01/13 03:29:47;;;;;;;32.80;21.47;;;3.00;99.90;;;;;;5019020;28;20473;-71
2024/01/13 03:32:13;;;;;;;27.70;19.60;;;3.00;99.90;;;;;;5034545;28;20263;-71
2024/01/13 03:34:39;;;;;;;32.03;20.30;;;3.00;99.90;;;;;;5035225;28;20204;-71
2024/01/13 03:37:04;;;;;;;30.30;19.30;;;3.00;99.90;;;;;;5034629;28;20532;-71
2024/01/13 03:39:30;;;;;;;26.53;19.13;;;3.00;99.90;;;;;;5035775;28;21027;-71
2024/01/13 03:41:55;;;;;;;30.10;19.57;;;3.00;99.90;;;;;;5035538;28;20596;-71
2024/01/13 03:44:21;;;;;;;28.80;18.27;;;3.00;99.90;;;;;;5034649;28;20574;-71
2024/01/13 03:46:47;;;;;;;30.93;20.80;;;3.00;99.90;;;;;;5035088;28;20575;-71
2024/01/13 03:49:13;;;;;;;32.20;19.83;;;3.00;99.90;;;;;;5033902;28;20273;-71
2024/01/13 03:51:38;;;;;;;29.93;18.90;;;3.00;99.90;;;;;;5017319;28;20187;-71
2024/01/13 03:54:04;;;;;;;24.53;18.30;;;3.00;99.90;;;;;;5034135;28;20795;-71
2024/01/13 03:56:30;;;;;;;25.90;18.00;;;3.00;99.90;;;;;;5034299;28;20201;-71
2024/01/13 03:58:55;;;;;;;26.00;17.60;;;3.00;99.90;;;;;;5035129;28;20212;-71
2024/01/13 04:01:21;;;;;;;27.63;18.50;;;3.00;99.90;;;;;;5033203;28;20218;-71
2024/01/13 04:03:47;;;;;;;30.07;19.63;;;3.00;99.90;;;;;;5035279;28;20530;-71
2024/01/13 04:06:12;;;;;;;26.27;18.17;;;3.00;99.90;;;;;;5033922;28;20181;-71
2024/01/13 04:08:38;;;;;;;29.37;18.23;;;2.90;99.90;;;;;;5034568;28;20186;-71
2024/01/13 04:11:07;;;;;;;27.90;18.63;;;3.00;99.90;;;;;;5032029;28;20644;-71
2024/01/13 04:13:32;;;;;;;33.97;21.93;;;3.00;99.90;;;;;;5034698;28;20490;-71
2024/01/13 04:15:58;;;;;;;24.13;16.83;;;3.00;99.90;;;;;;5033291;28;21136;-71
2024/01/13 04:18:24;;;;;;;27.57;18.50;;;3.00;99.90;;;;;;5033457;28;20514;-71
2024/01/13 04:20:49;;;;;;;26.13;17.30;;;3.00;99.90;;;;;;5034777;28;20217;-71
2024/01/13 04:23:15;;;;;;;27.60;18.60;;;3.00;99.90;;;;;;5033748;28;20657;-71
2024/01/13 04:25:41;;;;;;;29.93;18.03;;;3.00;99.90;;;;;;5016521;28;20261;-71
2024/01/13 04:28:06;;;;;;;28.90;19.80;;;3.00;99.90;;;;;;5033361;28;20972;-71
2024/01/13 04:30:33;;;;;;;27.07;18.23;;;3.00;99.90;;;;;;5034116;28;20182;-71
2024/01/13 04:32:58;;;;;;;30.13;19.60;;;3.00;99.90;;;;;;5032232;28;20186;-71
2024/01/13 04:35:24;;;;;;;28.23;18.97;;;3.00;99.90;;;;;;5033418;28;20424;-71
2024/01/13 04:37:50;;;;;;;29.77;19.53;;;3.00;99.90;;;;;;5034272;28;20526;-71
2024/01/13 04:40:15;;;;;;;30.40;19.80;;;3.00;99.90;;;;;;5033169;28;20229;-72
2024/01/13 04:42:41;;;;;;;31.43;20.30;;;3.00;99.90;;;;;;5015693;28;20963;-71
2024/01/13 04:45:08;;;;;;;34.53;21.30;;;3.00;99.90;;;;;;5032920;28;20235;-71
2024/01/13 04:47:33;;;;;;;30.93;20.60;;;3.00;99.90;;;;;;5033293;28;20189;-71
2024/01/13 04:49:59;;;;;;;29.57;20.07;;;2.90;99.90;;;;;;5032958;28;20433;-71
2024/01/13 04:52:25;;;;;;;29.83;20.07;;;3.00;99.90;;;;;;5033881;28;20178;-71
2024/01/13 04:54:51;;;;;;;32.67;20.50;;;2.90;99.90;;;;;;5033936;28;20750;-71
2024/01/13 04:57:16;;;;;;;31.40;19.27;;;2.90;99.90;;;;;;5033039;28;20190;-71
2024/01/13 04:59:42;;;;;;;27.43;18.00;;;3.00;99.90;;;;;;5033973;28;20285;-71
2024/01/13 05:02:08;;;;;;;28.93;19.47;;;3.00;99.90;;;;;;5032241;28;20222;-71
2024/01/13 05:04:33;;;;;;;30.17;18.17;;;3.00;99.90;;;;;;5032653;28;20543;-71
2024/01/13 05:06:59;;;;;;;27.83;17.90;;;3.00;99.90;;;;;;5033791;28;20174;-71
2024/01/13 05:09:24;;;;;;;31.40;18.07;;;3.00;99.90;;;;;;5033117;28;20228;-71
2024/01/13 05:11:50;;;;;;;30.77;18.60;;;3.00;99.90;;;;;;5033766;28;20273;-71
2024/01/13 05:14:16;;;;;;;30.70;19.47;;;3.00;99.90;;;;;;5032827;28;20186;-71
2024/01/13 05:16:42;;;;;;;26.23;17.30;;;3.00;99.90;;;;;;5033002;28;20195;-71
2024/01/13 05:19:08;;;;;;;26.57;17.73;;;3.00;99.90;;;;;;5032531;28;20930;-71
2024/01/13 05:21:33;;;;;;;26.40;16.53;;;3.00;99.90;;;;;;5033527;28;20351;-71
2024/01/13 05:23:59;;;;;;;29.40;18.43;;;3.00;99.90;;;;;;5031970;28;20177;-71
2024/01/13 05:26:25;;;;;;;25.63;17.00;;;3.00;99.90;;;;;;5032278;28;20178;-71
2024/01/13 05:28:50;;;;;;;29.10;17.90;;;3.00;99.90;;;;;;5031821;28;20444;-71
2024/01/13 05:31:16;;;;;;;29.13;17.40;;;3.00;99.90;;;;;;5031866;28;20266;-71
2024/01/13 05:33:42;;;;;;;31.27;19.27;;;3.00;99.90;;;;;;5032966;28;20185;-71
2024/01/13 05:36:07;;;;;;;27.47;18.27;;;3.00;99.90;;;;;;5014227;28;20273;-71
2024/01/13 05:38:33;;;;;;;26.83;17.30;;;3.00;99.90;;;;;;5015328;28;20190;-71
2024/01/13 05:40:59;;;;;;;25.40;17.20;;;2.90;99.90;;;;;;5031143;28;20205;-71
2024/01/13 05:43:24;;;;;;;26.33;18.50;;;2.90;99.90;;;;;;5032198;28;20185;-71
2024/01/13 05:45:50;;;;;;;31.37;18.80;;;2.90;99.90;;;;;;5029981;28;20182;-71
2024/01/13 05:48:16;;;;;;;25.07;18.67;;;2.90;99.90;;;;;;5032283;28;20181;-71
2024/01/13 05:50:42;;;;;;;30.03;17.80;;;2.90;99.90;;;;;;5015555;28;20193;-71
2024/01/13 05:53:07;;;;;;;28.30;18.83;;;3.00;99.90;;;;;;5031821;28;20883;-71
2024/01/13 05:55:33;;;;;;;30.00;17.87;;;2.90;99.90;;;;;;5014767;28;20182;-71
2024/01/13 05:57:58;;;;;;;30.93;18.77;;;3.00;99.90;;;;;;5014046;28;20186;-71
2024/01/13 06:00:24;;;;;;;23.60;16.80;;;3.00;99.90;;;;;;5031697;28;20220;-71
2024/01/13 06:02:50;;;;;;;25.20;17.90;;;3.00;99.90;;;;;;5031015;28;20184;-72
2024/01/13 06:05:15;;;;;;;28.47;17.10;;;3.00;99.90;;;;;;5030902;28;20799;-72
2024/01/13 06:07:42;;;;;;;28.10;18.27;;;3.00;99.90;;;;;;5031969;28;20216;-71
2024/01/13 06:10:09;;;;;;;30.50;18.33;;;3.00;99.90;;;;;;5031165;28;20423;-71
2024/01/13 06:12:34;;;;;;;25.03;15.80;;;3.00;99.90;;;;;;5014191;28;20435;-71
2024/01/13 06:15:00;;;;;;;25.33;18.20;;;3.10;99.90;;;;;;5027780;28;21059;-71
2024/01/13 06:17:25;;;;;;;24.03;16.60;;;3.10;99.90;;;;;;5032168;28;20197;-71
2024/01/13 06:19:51;;;;;;;25.80;16.00;;;3.00;99.90;;;;;;5028725;28;20185;-71
2024/01/13 06:22:17;;;;;;;27.33;16.60;;;3.00;99.90;;;;;;5029596;28;20190;-72
2024/01/13 06:24:42;;;;;;;24.63;17.70;;;3.00;99.90;;;;;;5032150;28;20202;-71
2024/01/13 06:27:08;;;;;;;24.20;16.10;;;3.10;99.90;;;;;;5032263;28;20206;-72
2024/01/13 06:29:34;;;;;;;26.80;18.33;;;3.10;99.90;;;;;;5033090;28;20185;-71
2024/01/13 06:31:59;;;;;;;26.87;17.20;;;3.00;99.90;;;;;;5028485;28;20178;-71
2024/01/13 06:34:25;;;;;;;24.90;16.70;;;3.10;99.90;;;;;;5011675;28;20441;-71
2024/01/13 06:36:51;;;;;;;28.27;18.20;;;3.10;99.90;;;;;;5026649;28;20190;-71
2024/01/13 06:39:17;;;;;;;25.63;17.90;;;3.00;99.90;;;;;;5028684;28;20812;-71
2024/01/13 06:41:42;;;;;;;23.77;17.10;;;3.00;99.90;;;;;;5029703;28;20576;-71
2024/01/13 06:44:08;;;;;;;28.90;18.60;;;3.00;99.90;;;;;;5030956;28;20624;-71
2024/01/13 06:46:34;;;;;;;26.87;17.90;;;3.00;99.90;;;;;;5032307;28;20185;-71
2024/01/13 06:48:59;;;;;;;26.30;17.80;;;3.00;99.90;;;;;;5031978;28;20224;-71
2024/01/13 06:51:25;;;;;;;25.47;17.20;;;3.00;99.90;;;;;;5031112;28;20190;-71
2024/01/13 06:53:51;;;;;;;23.27;17.13;;;3.10;99.90;;;;;;5031072;28;20193;-71
2024/01/13 06:56:16;;;;;;;29.73;18.17;;;3.10;99.90;;;;;;5031656;28;20197;-71
2024/01/13 06:58:42;;;;;;;24.90;16.70;;;3.10;99.90;;;;;;5035566;28;20693;-71
2024/01/13 07:01:07;;;;;;;26.67;17.57;;;3.00;99.90;;;;;;5017287;28;20728;-71
2024/01/13 07:03:33;;;;;;;29.30;19.20;;;3.00;99.90;;;;;;5035579;28;20921;-71
2024/01/13 07:05:59;;;;;;;24.70;16.93;;;3.00;99.90;;;;;;5034407;28;20187;-71
2024/01/13 07:08:25;;;;;;;29.60;17.17;;;3.00;99.90;;;;;;5035668;28;20213;-71
2024/01/13 07:10:53;;;;;;;29.63;18.10;;;3.00;99.90;;;;;;5034909;28;20925;-71
2024/01/13 07:13:19;;;;;;;25.97;17.50;;;3.00;99.90;;;;;;5035203;28;20186;-71
2024/01/13 07:15:45;;;;;;;22.70;16.47;;;3.00;99.90;;;;;;5033915;28;20965;-71
2024/01/13 07:18:10;;;;;;;24.60;16.90;;;3.00;99.90;;;;;;5033782;28;20194;-71
2024/01/13 07:20:36;;;;;;;23.13;16.67;;;3.00;99.90;;;;;;5033981;28;20855;-71
2024/01/13 07:23:02;;;;;;;20.80;16.03;;;3.00;99.90;;;;;;5033908;28;20251;-71
2024/01/13 07:25:30;;;;;;;20.83;16.33;;;3.00;99.90;;;;;;5034847;28;20201;-71
2024/01/13 07:27:56;;;;;;;22.27;15.80;;;3.00;99.90;;;;;;5034274;28;20193;-71
2024/01/13 07:30:22;;;;;;;23.07;16.83;;;3.00;99.90;;;;;;5017351;28;20429;-71
2024/01/13 07:32:48;;;;;;;23.17;15.70;;;3.00;99.90;;;;;;5032065;28;20489;-71
2024/01/13 07:35:13;;;;;;;21.27;15.13;;;3.00;99.90;;;;;;5030391;28;20198;-71
2024/01/13 07:37:39;;;;;;;20.27;14.47;;;3.00;99.90;;;;;;5033567;28;20197;-71
2024/01/13 07:40:06;;;;;;;20.43;15.07;;;3.00;99.90;;;;;;5032456;28;20297;-71
2024/01/13 07:42:32;;;;;;;21.83;15.80;;;3.00;99.90;;;;;;5027937;28;20809;-71
2024/01/13 07:44:59;;;;;;;17.47;13.70;;;3.00;99.90;;;;;;5028598;28;20444;-71
2024/01/13 07:47:25;;;;;;;21.77;15.20;;;3.00;99.90;;;;;;5032933;28;20485;-71
2024/01/13 07:49:51;;;;;;;19.50;15.30;;;3.10;99.90;;;;;;5028183;28;20531;-71
2024/01/13 07:52:17;;;;;;;20.00;15.07;;;3.10;99.90;;;;;;5034244;28;20523;-71
2024/01/13 07:54:42;;;;;;;18.93;14.30;;;3.00;99.90;;;;;;5032734;28;20217;-71
2024/01/13 07:57:08;;;;;;;19.30;13.80;;;3.00;99.90;;;;;;5034706;28;20190;-71
2024/01/13 07:59:34;;;;;;;23.40;15.00;;;3.00;99.90;;;;;;5035845;28;20193;-71
2024/01/13 08:02:00;;;;;;;20.80;14.87;;;3.10;99.90;;;;;;5033977;28;20986;-71
2024/01/13 08:04:26;;;;;;;21.10;14.30;;;3.10;99.90;;;;;;5035239;28;20448;-71
2024/01/13 08:06:52;;;;;;;21.97;15.00;;;3.10;99.90;;;;;;5033718;28;20519;-71
2024/01/13 08:09:18;;;;;;;19.80;13.80;;;3.10;99.90;;;;;;5034111;28;20429;-71
2024/01/13 08:11:43;;;;;;;20.37;14.13;;;3.00;99.90;;;;;;5034734;28;20853;-71
2024/01/13 08:14:09;;;;;;;18.60;13.60;;;3.10;99.90;;;;;;5034499;28;20213;-71
2024/01/13 08:16:35;;;;;;;20.47;13.17;;;3.00;99.90;;;;;;5035008;28;20209;-71
2024/01/13 08:19:01;;;;;;;20.30;12.63;;;3.10;99.90;;;;;;5034427;28;20177;-71
2024/01/13 08:21:27;;;;;;;18.90;12.73;;;3.10;99.90;;;;;;5033726;28;20628;-71
2024/01/13 08:23:52;;;;;;;16.17;11.70;;;3.00;99.90;;;;;;5034110;28;20514;-71
2024/01/13 08:26:18;;;;;;;16.60;12.33;;;3.10;99.90;;;;;;5030918;28;20217;-71
2024/01/13 08:28:44;;;;;;;15.93;12.40;;;3.10;99.90;;;;;;5032768;28;20324;-71
2024/01/13 08:31:09;;;;;;;14.30;10.60;;;3.10;99.90;;;;;;5034927;28;20182;-71
2024/01/13 08:33:35;;;;;;;17.67;11.47;;;3.10;99.90;;;;;;5033961;28;20204;-71
2024/01/13 08:36:01;;;;;;;14.77;9.20;;;3.20;99.90;;;;;;5029501;28;20198;-72
2024/01/13 08:38:26;;;;;;;13.87;10.67;;;3.20;99.90;;;;;;5034415;28;20672;-72
2024/01/13 08:40:52;;;;;;;13.93;10.40;;;3.20;99.90;;;;;;5033044;28;20706;-71
2024/01/13 08:43:18;;;;;;;17.20;11.13;;;3.20;99.90;;;;;;5016371;28;20786;-71
2024/01/13 08:45:43;;;;;;;12.73;9.57;;;3.20;99.90;;;;;;5028725;28;20222;-71
2024/01/13 08:48:09;;;;;;;14.03;10.03;;;3.20;99.90;;;;;;5034755;28;20676;-71
2024/01/13 08:50:35;;;;;;;15.77;11.00;;;3.20;99.90;;;;;;5013849;28;20311;-71
2024/01/13 08:53:01;;;;;;;18.30;11.60;;;3.20;99.90;;;;;;5032974;28;20511;-71
2024/01/13 08:55:27;;;;;;;16.27;11.63;;;3.20;99.90;;;;;;5030815;28;20225;-71
2024/01/13 08:57:52;;;;;;;17.43;12.10;;;3.20;99.90;;;;;;5013822;28;20476;-71
2024/01/13 09:00:19;;;;;;;17.30;12.30;;;3.20;99.90;;;;;;5033964;28;20469;-72
2024/01/13 09:02:45;;;;;;;17.07;12.77;;;3.30;99.90;;;;;;5032139;28;20281;-72
2024/01/13 09:05:11;;;;;;;15.50;12.03;;;3.20;99.90;;;;;;5033460;28;20432;-72
2024/01/13 09:07:37;;;;;;;17.83;13.00;;;3.30;99.90;;;;;;5031887;28;20429;-72
2024/01/13 09:10:04;;;;;;;20.37;14.20;;;3.30;99.90;;;;;;5033482;28;20432;-72
2024/01/13 09:12:30;;;;;;;22.87;14.27;;;3.30;99.90;;;;;;5033980;28;20425;-68
2024/01/13 09:14:55;;;;;;;21.10;15.17;;;3.20;99.90;;;;;;5033402;28;20451;-74
2024/01/13 09:17:21;;;;;;;24.83;14.50;;;3.20;99.90;;;;;;5033188;28;20879;-71
2024/01/13 09:19:47;;;;;;;22.80;15.87;;;3.30;99.90;;;;;;5030928;28;20186;-71
2024/01/13 09:22:13;;;;;;;23.03;15.87;;;3.30;99.90;;;;;;5031993;28;20228;-72
2024/01/13 09:24:41;;;;;;;25.90;16.10;;;3.30;99.90;;;;;;5031774;28;20178;-70
2024/01/13 09:27:07;;;;;;;21.97;15.27;;;3.30;99.90;;;;;;4998395;28;20182;-72
2024/01/13 09:29:32;;;;;;;24.30;16.10;;;3.30;99.90;;;;;;5032954;28;20443;-71
2024/01/13 09:31:59;;;;;;;25.40;17.30;;;3.30;99.90;;;;;;4998857;28;20302;-71
2024/01/13 09:34:25;;;;;;;22.37;15.90;;;3.30;99.90;;;;;;5016013;28;20429;-69
2024/01/13 09:36:51;;;;;;;20.57;15.57;;;3.30;99.90;;;;;;5031972;28;20484;-69
2024/01/13 09:39:17;;;;;;;24.17;16.53;;;3.30;99.90;;;;;;5032759;28;20429;-70
2024/01/13 09:41:47;;;;;;;23.93;15.87;;;3.30;99.90;;;;;;5032187;28;21131;-71
2024/01/13 09:44:21;;;;;;;21.30;15.90;;;3.30;99.90;;;;;;4997757;28;20424;-70
2024/01/13 09:46:51;;;;;;;23.63;15.73;;;3.30;99.90;;;;;;5032015;28;20469;-71
2024/01/13 09:49:18;;;;;;;25.50;16.50;;;3.40;99.90;;;;;;5032590;28;20448;-70
2024/01/13 09:51:45;;;;;;;19.90;14.30;;;3.30;99.90;;;;;;5032357;28;20436;-70
2024/01/13 09:54:29;;;;;;;24.30;15.60;;;3.40;99.90;;;;;;5032290;28;20460;-70
2024/01/13 09:56:56;;;;;;;21.40;15.00;;;3.40;99.90;;;;;;5032080;28;20436;-70
2024/01/13 09:59:25;;;;;;;22.07;15.13;;;3.40;99.90;;;;;;5014035;28;20461;-70
2024/01/13 10:01:55;;;;;;;24.57;16.33;;;3.40;99.90;;;;;;4996934;28;20483;-70
2024/01/13 10:04:21;;;;;;;21.90;15.97;;;3.40;99.90;;;;;;5032516;28;20480;-71
2024/01/13 10:06:48;;;;;;;25.70;16.77;;;3.40;99.90;;;;;;5015253;28;20429;-70
2024/01/13 10:09:14;;;;;;;24.97;17.10;;;3.40;99.90;;;;;;4999748;28;20453;-69
2024/01/13 10:11:40;;;;;;;25.50;16.60;;;3.40;99.90;;;;;;5031802;28;20867;-69
2024/01/13 10:14:08;;;;;;;22.00;15.77;;;3.40;99.90;;;;;;5033279;28;20515;-69
2024/01/13 10:16:35;;;;;;;22.80;17.00;;;3.40;99.90;;;;;;5031512;28;20509;-71
2024/01/13 10:19:07;;;;;;;21.97;15.80;;;3.40;99.90;;;;;;5033192;28;20525;-70
2024/01/13 10:21:34;;;;;;;25.77;17.53;;;3.40;99.90;;;;;;5031666;28;20464;-70
2024/01/13 10:24:00;;;;;;;22.70;17.27;;;3.40;99.90;;;;;;5031534;28;20798;-71
2024/01/13 10:26:28;;;;;;;26.60;16.53;;;3.40;99.90;;;;;;5032611;28;20451;-71
2024/01/13 10:28:57;;;;;;;22.67;16.27;;;3.40;99.90;;;;;;5031526;28;20424;-70
2024/01/13 10:31:24;;;;;;;22.07;15.50;;;3.40;99.90;;;;;;5032565;28;21256;-70
2024/01/13 10:33:50;;;;;;;21.60;15.33;;;3.40;99.90;;;;;;5035884;28;20939;-69
2024/01/13 10:36:26;;;;;;;24.43;16.53;;;3.50;99.90;;;;;;5033743;28;20506;-71
2024/01/13 10:38:52;;;;;;;22.70;15.90;;;3.50;99.90;;;;;;5035205;28;20566;-70
2024/01/13 10:41:22;;;;;;;21.10;15.10;;;3.50;99.90;;;;;;5036480;28;21192;-70
2024/01/13 10:43:54;;;;;;;23.73;15.13;;;3.50;99.90;;;;;;5035900;28;21178;-72
2024/01/13 10:46:23;;;;;;;21.13;14.30;;;3.50;99.90;;;;;;5035613;28;20465;-69
2024/01/13 10:48:51;;;;;;;20.53;15.27;;;3.50;99.90;;;;;;5034952;28;20417;-70
2024/01/13 10:51:31;;;;;;;19.20;14.17;;;3.50;99.90;;;;;;5036738;28;21280;-73
2024/01/13 10:54:00;;;;;;;21.40;15.13;;;3.50;99.90;;;;;;4986930;28;20477;-71
2024/01/13 10:56:28;;;;;;;19.20;13.10;;;3.50;99.90;;;;;;5000071;28;20611;-70
2024/01/13 10:58:55;;;;;;;23.30;15.00;;;3.50;99.90;;;;;;5035858;28;20428;-69
2024/01/13 11:01:21;;;;;;;18.97;14.13;;;3.50;99.90;;;;;;5036209;28;20505;-69
2024/01/13 11:03:50;;;;;;;19.37;14.60;;;3.50;99.90;;;;;;5034348;28;21044;-71
2024/01/13 11:06:17;;;;;;;20.80;15.20;;;3.50;99.90;;;;;;5008651;28;20802;-71
2024/01/13 11:08:44;;;;;;;21.60;14.63;;;3.50;99.90;;;;;;5034064;28;20444;-70
2024/01/13 11:11:12;;;;;;;21.90;15.10;;;3.50;99.90;;;;;;5034772;28;20576;-71
2024/01/13 11:13:45;;;;;;;20.80;14.77;;;3.50;99.90;;;;;;5034809;28;20429;-71
2024/01/13 11:16:14;;;;;;;20.33;14.63;;;3.50;99.90;;;;;;5035682;28;20437;-71
2024/01/13 11:18:49;;;;;;;19.90;15.63;;;3.50;99.90;;;;;;5002554;28;20432;-71
2024/01/13 11:21:19;;;;;;;21.43;14.47;;;3.50;99.90;;;;;;5035851;28;20471;-70
2024/01/13 11:23:58;;;;;;;18.47;13.87;;;3.50;99.90;;;;;;5034989;28;20455;-69
2024/01/13 11:26:36;;;;;;;20.47;14.30;;;3.50;99.90;;;;;;4986554;28;21078;-69
2024/01/13 11:29:02;;;;;;;21.40;14.13;;;3.50;99.90;;;;;;5035864;28;20489;-70
2024/01/13 11:31:38;;;;;;;18.67;13.90;;;3.50;99.90;;;;;;5034707;28;20812;-70
2024/01/13 11:34:06;;;;;;;17.50;13.50;;;3.50;99.90;;;;;;5002997;28;20435;-70
2024/01/13 11:36:33;;;;;;;19.33;13.63;;;3.40;99.90;;;;;;5016507;28;20433;-71
2024/01/13 11:39:06;;;;;;;18.90;13.60;;;3.50;99.90;;;;;;5017815;28;20471;-70
2024/01/13 11:41:41;;;;;;;19.80;14.20;;;3.40;99.90;;;;;;5034322;28;20468;-72
2024/01/13 11:44:09;;;;;;;18.40;13.90;;;3.50;99.90;;;;;;5035001;28;20431;-72
2024/01/13 11:46:39;;;;;;;17.33;13.77;;;3.50;99.90;;;;;;5033861;28;21016;-71
2024/01/13 11:49:05;;;;;;;17.77;12.83;;;3.40;99.90;;;;;;5035419;28;21304;-70
2024/01/13 11:52:06;;;;;;;18.50;13.50;;;3.50;99.90;;;;;;5034321;28;20433;-71
2024/01/13 11:54:35;;;;;;;18.63;12.77;;;3.40;99.90;;;;;;5002142;28;20922;-72
2024/01/13 11:57:04;;;;;;;21.23;13.80;;;3.50;99.90;;;;;;5028155;28;20447;-70
2024/01/13 11:59:29;;;;;;;17.17;13.00;;;3.50;99.90;;;;;;5028326;28;20452;-70
2024/01/13 12:01:56;;;;;;;16.60;12.57;;;3.40;99.90;;;;;;5033469;28;20476;-71
2024/01/13 12:04:30;;;;;;;16.80;13.10;;;3.50;99.90;;;;;;5033288;28;20194;-70
2024/01/13 12:06:56;;;;;;;20.60;14.20;;;3.50;99.90;;;;;;5003540;28;20433;-71
2024/01/13 12:09:23;;;;;;;18.77;14.07;;;3.50;99.90;;;;;;5033480;28;20472;-69
2024/01/13 12:11:55;;;;;;;17.77;14.17;;;3.50;99.90;;;;;;5033098;28;20530;-72
2024/01/13 12:14:29;;;;;;;21.87;15.43;;;3.50;99.90;;;;;;5032997;28;20441;-71
2024/01/13 12:16:57;;;;;;;20.00;14.60;;;3.50;99.90;;;;;;4998655;28;20514;-71
2024/01/13 12:19:26;;;;;;;22.07;13.83;;;3.50;99.90;;;;;;5033699;28;21013;-70
2024/01/13 12:21:53;;;;;;;18.57;14.33;;;3.50;99.90;;;;;;4986827;28;20504;-69
2024/01/13 12:24:29;;;;;;;22.97;15.90;;;3.50;99.90;;;;;;5007689;28;20484;-71
2024/01/13 12:26:56;;;;;;;22.60;15.20;;;3.50;99.90;;;;;;4991090;28;20547;-71
2024/01/13 12:29:25;;;;;;;19.60;14.63;;;3.50;99.90;;;;;;5032413;28;20942;-69
2024/01/13 12:31:53;;;;;;;19.00;13.53;;;3.50;99.90;;;;;;5031186;28;20473;-70